Terminal Aerodrome Forecast
Issued by NWS Wichita, KS

Home | Current Version | Previous Version | Text Only | Print | Product List | Glossary On
Versions: 1 2 3 4 5 6 7 8 9 10 11 12 13 14 15 16 17 18
000
FTUS43 KICT 230800 AAB
TAFICT
TAF AMD
KICT 230803Z 2308/2406 19005KT P6SM SCT025 BKN040
     FM230900 19006KT P6SM SCT015 BKN025
     FM231100 19006KT 6SM BR SCT009 OVC015
     FM231700 19010KT P6SM BKN025=

USA.gov is the U.S. government's official web portal to all federal, state and local government web resources and services.